sensor_id;sensor_type;location;lat;lon;timestamp;pressure;altitude;pressure_sealevel;temperature;humidity
21236;BME280;10775;42.678;26.324;2023-05-23T00:00:23;98266.59;;;19.02;77.53
21236;BME280;10775;42.678;26.324;2023-05-23T00:02:48;98263.78;;;18.75;78.14
21236;BME280;10775;42.678;26.324;2023-05-23T00:05:14;98257.09;;;18.23;81.23
21236;BME280;10775;42.678;26.324;2023-05-23T00:07:43;98259.00;;;18.82;78.92
21236;BME280;10775;42.678;26.324;2023-05-23T00:10:10;98252.41;;;18.73;79.40
21236;BME280;10775;42.678;26.324;2023-05-23T00:12:35;98258.59;;;18.88;78.03
21236;BME280;10775;42.678;26.324;2023-05-23T00:15:04;98258.66;;;18.42;80.00
21236;BME280;10775;42.678;26.324;2023-05-23T00:17:32;98244.72;;;18.54;78.49
21236;BME280;10775;42.678;26.324;2023-05-23T00:19:57;98257.88;;;17.78;81.97
21236;BME280;10775;42.678;26.324;2023-05-23T00:22:23;98252.53;;;17.30;84.46
21236;BME280;10775;42.678;26.324;2023-05-23T00:24:48;98252.53;;;17.79;84.64
21236;BME280;10775;42.678;26.324;2023-05-23T00:27:13;98247.88;;;18.45;80.93
21236;BME280;10775;42.678;26.324;2023-05-23T00:29:39;98247.91;;;17.67;82.75
21236;BME280;10775;42.678;26.324;2023-05-23T00:32:04;98255.91;;;18.13;82.11
21236;BME280;10775;42.678;26.324;2023-05-23T00:34:30;98248.91;;;18.12;81.50
21236;BME280;10775;42.678;26.324;2023-05-23T00:36:55;98251.97;;;18.20;81.97
21236;BME280;10775;42.678;26.324;2023-05-23T00:39:22;98246.53;;;17.60;83.37
21236;BME280;10775;42.678;26.324;2023-05-23T00:41:49;98250.63;;;17.66;83.78
21236;BME280;10775;42.678;26.324;2023-05-23T00:44:15;98250.72;;;18.42;81.36
21236;BME280;10775;42.678;26.324;2023-05-23T00:46:42;98248.16;;;18.40;80.02
21236;BME280;10775;42.678;26.324;2023-05-23T00:49:10;98248.50;;;18.95;77.81
21236;BME280;10775;42.678;26.324;2023-05-23T00:51:37;98245.19;;;19.05;77.29
21236;BME280;10775;42.678;26.324;2023-05-23T00:54:04;98255.59;;;18.03;82.35
21236;BME280;10775;42.678;26.324;2023-05-23T00:56:30;98244.06;;;18.35;81.07
21236;BME280;10775;42.678;26.324;2023-05-23T00:58:56;98252.66;;;18.54;80.08
21236;BME280;10775;42.678;26.324;2023-05-23T01:01:22;98243.19;;;18.50;80.28
21236;BME280;10775;42.678;26.324;2023-05-23T01:03:48;98242.22;;;17.91;81.70
21236;BME280;10775;42.678;26.324;2023-05-23T01:06:14;98238.91;;;17.22;86.00
21236;BME280;10775;42.678;26.324;2023-05-23T01:08:41;98230.25;;;17.52;84.78
21236;BME280;10775;42.678;26.324;2023-05-23T01:11:23;98228.56;;;17.83;83.05
21236;BME280;10775;42.678;26.324;2023-05-23T01:14:01;98231.09;;;17.68;84.10
21236;BME280;10775;42.678;26.324;2023-05-23T01:22:07;98226.06;;;17.64;83.68
21236;BME280;10775;42.678;26.324;2023-05-23T01:24:48;98223.78;;;17.89;82.38
21236;BME280;10775;42.678;26.324;2023-05-23T01:30:07;98234.78;;;17.97;83.17
21236;BME280;10775;42.678;26.324;2023-05-23T01:32:35;98221.72;;;18.10;81.43
21236;BME280;10775;42.678;26.324;2023-05-23T01:35:01;98227.69;;;17.66;83.10
21236;BME280;10775;42.678;26.324;2023-05-23T01:37:27;98223.16;;;17.68;82.76
21236;BME280;10775;42.678;26.324;2023-05-23T01:39:53;98220.97;;;18.38;79.96
21236;BME280;10775;42.678;26.324;2023-05-23T01:42:19;98217.28;;;18.11;81.78
21236;BME280;10775;42.678;26.324;2023-05-23T01:44:45;98224.78;;;17.23;86.06
21236;BME280;10775;42.678;26.324;2023-05-23T01:47:12;98222.19;;;17.06;88.53
21236;BME280;10775;42.678;26.324;2023-05-23T01:49:39;98224.97;;;17.36;87.23
21236;BME280;10775;42.678;26.324;2023-05-23T01:52:06;98215.16;;;18.32;81.78
21236;BME280;10775;42.678;26.324;2023-05-23T01:54:36;98210.44;;;18.37;79.27
21236;BME280;10775;42.678;26.324;2023-05-23T01:57:02;98210.97;;;18.28;81.23
21236;BME280;10775;42.678;26.324;2023-05-23T01:59:30;98206.88;;;17.60;83.92
21236;BME280;10775;42.678;26.324;2023-05-23T02:01:56;98205.59;;;17.99;82.99
21236;BME280;10775;42.678;26.324;2023-05-23T02:04:21;98198.41;;;18.61;79.64
21236;BME280;10775;42.678;26.324;2023-05-23T02:06:47;98200.13;;;18.02;81.35
21236;BME280;10775;42.678;26.324;2023-05-23T02:09:12;98194.41;;;18.68;79.06
21236;BME280;10775;42.678;26.324;2023-05-23T02:11:38;98183.44;;;18.46;79.56
21236;BME280;10775;42.678;26.324;2023-05-23T02:14:03;98195.00;;;17.99;82.10
21236;BME280;10775;42.678;26.324;2023-05-23T02:16:29;98194.13;;;18.14;80.80
21236;BME280;10775;42.678;26.324;2023-05-23T02:18:54;98201.44;;;17.95;82.66
21236;BME280;10775;42.678;26.324;2023-05-23T02:21:23;98209.66;;;18.04;82.03
21236;BME280;10775;42.678;26.324;2023-05-23T02:23:49;98212.88;;;17.95;82.76
21236;BME280;10775;42.678;26.324;2023-05-23T02:26:15;98212.78;;;17.81;83.48
21236;BME280;10775;42.678;26.324;2023-05-23T02:28:40;98223.09;;;17.54;84.17
21236;BME280;10775;42.678;26.324;2023-05-23T02:31:05;98220.53;;;17.52;85.09
21236;BME280;10775;42.678;26.324;2023-05-23T02:33:31;98229.59;;;18.56;79.91
21236;BME280;10775;42.678;26.324;2023-05-23T02:35:56;98234.22;;;18.97;77.01
21236;BME280;10775;42.678;26.324;2023-05-23T02:38:22;98225.81;;;18.60;78.54
21236;BME280;10775;42.678;26.324;2023-05-23T02:40:47;98236.00;;;19.11;76.25
21236;BME280;10775;42.678;26.324;2023-05-23T02:43:14;98241.97;;;19.29;74.96
21236;BME280;10775;42.678;26.324;2023-05-23T02:45:40;98242.66;;;18.59;77.96
21236;BME280;10775;42.678;26.324;2023-05-23T02:48:05;98250.59;;;18.29;78.74
21236;BME280;10775;42.678;26.324;2023-05-23T02:50:31;98258.44;;;17.35;83.14
21236;BME280;10775;42.678;26.324;2023-05-23T02:52:56;98245.03;;;16.89;85.42
21236;BME280;10775;42.678;26.324;2023-05-23T02:55:21;98244.50;;;17.97;82.27
21236;BME280;10775;42.678;26.324;2023-05-23T02:57:47;98242.53;;;18.77;78.20
21236;BME280;10775;42.678;26.324;2023-05-23T03:00:12;98240.66;;;17.06;84.15
21236;BME280;10775;42.678;26.324;2023-05-23T03:02:39;98248.78;;;16.50;87.80
21236;BME280;10775;42.678;26.324;2023-05-23T03:05:05;98244.22;;;16.54;88.44
21236;BME280;10775;42.678;26.324;2023-05-23T03:07:31;98244.97;;;16.91;85.88
21236;BME280;10775;42.678;26.324;2023-05-23T03:09:58;98247.59;;;17.24;87.28
21236;BME280;10775;42.678;26.324;2023-05-23T03:12:26;98251.19;;;16.90;86.46
21236;BME280;10775;42.678;26.324;2023-05-23T03:14:51;98244.75;;;17.45;85.65
21236;BME280;10775;42.678;26.324;2023-05-23T03:17:17;98235.75;;;18.27;81.20
21236;BME280;10775;42.678;26.324;2023-05-23T03:19:42;98249.94;;;18.10;81.10
21236;BME280;10775;42.678;26.324;2023-05-23T03:22:08;98243.56;;;18.44;79.57
21236;BME280;10775;42.678;26.324;2023-05-23T03:24:33;98236.38;;;18.60;78.60
21236;BME280;10775;42.678;26.324;2023-05-23T03:26:58;98244.72;;;18.68;77.94
21236;BME280;10775;42.678;26.324;2023-05-23T03:29:25;98253.22;;;18.59;77.75
21236;BME280;10775;42.678;26.324;2023-05-23T03:31:50;98247.91;;;17.51;80.33
21236;BME280;10775;42.678;26.324;2023-05-23T03:34:16;98241.34;;;18.66;78.36
21236;BME280;10775;42.678;26.324;2023-05-23T03:36:42;98242.91;;;18.99;75.06
21236;BME280;10775;42.678;26.324;2023-05-23T03:39:07;98242.16;;;18.97;76.21
21236;BME280;10775;42.678;26.324;2023-05-23T03:41:33;98237.06;;;19.23;74.64
21236;BME280;10775;42.678;26.324;2023-05-23T03:43:58;98245.34;;;19.45;73.82
21236;BME280;10775;42.678;26.324;2023-05-23T03:46:25;98241.28;;;19.54;73.03
21236;BME280;10775;42.678;26.324;2023-05-23T03:48:50;98238.75;;;19.38;73.65
21236;BME280;10775;42.678;26.324;2023-05-23T03:51:16;98229.91;;;19.66;72.40
21236;BME280;10775;42.678;26.324;2023-05-23T03:53:41;98231.94;;;19.48;73.06
21236;BME280;10775;42.678;26.324;2023-05-23T03:56:07;98226.97;;;19.57;72.19
21236;BME280;10775;42.678;26.324;2023-05-23T03:58:32;98239.50;;;19.69;71.87
21236;BME280;10775;42.678;26.324;2023-05-23T04:00:58;98245.16;;;19.77;71.52
21236;BME280;10775;42.678;26.324;2023-05-23T04:03:23;98237.47;;;18.12;76.64
21236;BME280;10775;42.678;26.324;2023-05-23T04:05:50;98252.53;;;18.86;75.91
21236;BME280;10775;42.678;26.324;2023-05-23T04:08:16;98258.78;;;18.85;72.90
21236;BME280;10775;42.678;26.324;2023-05-23T04:10:41;98261.34;;;19.29;73.92
21236;BME280;10775;42.678;26.324;2023-05-23T04:13:07;98264.00;;;19.44;73.06
21236;BME280;10775;42.678;26.324;2023-05-23T04:15:34;98261.34;;;19.72;71.84
21236;BME280;10775;42.678;26.324;2023-05-23T04:17:59;98254.75;;;19.37;72.48
21236;BME280;10775;42.678;26.324;2023-05-23T04:20:24;98259.06;;;19.52;70.87
21236;BME280;10775;42.678;26.324;2023-05-23T04:22:50;98258.19;;;19.66;71.79
21236;BME280;10775;42.678;26.324;2023-05-23T04:25:15;98261.16;;;19.61;71.74
21236;BME280;10775;42.678;26.324;2023-05-23T04:27:43;98282.09;;;19.51;72.26
21236;BME280;10775;42.678;26.324;2023-05-23T04:30:09;98291.72;;;18.35;75.46
21236;BME280;10775;42.678;26.324;2023-05-23T04:32:35;98287.47;;;18.62;76.49
21236;BME280;10775;42.678;26.324;2023-05-23T04:35:00;98287.94;;;19.71;71.89
21236;BME280;10775;42.678;26.324;2023-05-23T04:37:26;98290.50;;;19.87;70.78
21236;BME280;10775;42.678;26.324;2023-05-23T04:39:52;98296.66;;;19.87;70.67
21236;BME280;10775;42.678;26.324;2023-05-23T04:42:18;98288.84;;;19.98;70.65
21236;BME280;10775;42.678;26.324;2023-05-23T04:44:49;98291.06;;;19.77;70.09
21236;BME280;10775;42.678;26.324;2023-05-23T04:47:16;98293.09;;;19.74;70.69
21236;BME280;10775;42.678;26.324;2023-05-23T04:49:41;98295.91;;;19.71;70.94
21236;BME280;10775;42.678;26.324;2023-05-23T04:52:06;98291.28;;;19.46;71.85
21236;BME280;10775;42.678;26.324;2023-05-23T04:54:32;98298.94;;;18.47;75.69
21236;BME280;10775;42.678;26.324;2023-05-23T04:56:58;98291.31;;;18.11;78.75
21236;BME280;10775;42.678;26.324;2023-05-23T04:59:23;98294.09;;;19.14;74.29
21236;BME280;10775;42.678;26.324;2023-05-23T05:01:48;98300.66;;;19.51;72.24
21236;BME280;10775;42.678;26.324;2023-05-23T05:04:14;98302.66;;;18.89;74.84
21236;BME280;10775;42.678;26.324;2023-05-23T05:06:40;98291.94;;;19.49;72.36
21236;BME280;10775;42.678;26.324;2023-05-23T05:09:06;98300.91;;;19.75;71.27
21236;BME280;10775;42.678;26.324;2023-05-23T05:11:31;98295.34;;;19.08;73.64
21236;BME280;10775;42.678;26.324;2023-05-23T05:13:57;98295.44;;;19.36;72.78
21236;BME280;10775;42.678;26.324;2023-05-23T05:16:22;98302.63;;;19.05;73.73
21236;BME280;10775;42.678;26.324;2023-05-23T05:18:48;98304.63;;;19.59;71.79
21236;BME280;10775;42.678;26.324;2023-05-23T05:21:13;98313.88;;;19.37;71.89
21236;BME280;10775;42.678;26.324;2023-05-23T05:23:39;98304.06;;;19.68;71.28
21236;BME280;10775;42.678;26.324;2023-05-23T05:26:05;98311.66;;;19.74;71.03
21236;BME280;10775;42.678;26.324;2023-05-23T05:28:30;98308.38;;;19.11;72.35
21236;BME280;10775;42.678;26.324;2023-05-23T05:30:57;98309.44;;;19.23;72.97
21236;BME280;10775;42.678;26.324;2023-05-23T05:33:22;98311.66;;;19.74;71.12
21236;BME280;10775;42.678;26.324;2023-05-23T05:35:49;98314.31;;;20.01;69.82
21236;BME280;10775;42.678;26.324;2023-05-23T05:38:18;98321.66;;;19.83;70.10
21236;BME280;10775;42.678;26.324;2023-05-23T05:40:43;98321.22;;;19.76;70.28
21236;BME280;10775;42.678;26.324;2023-05-23T05:43:09;98318.31;;;19.94;69.82
21236;BME280;10775;42.678;26.324;2023-05-23T05:45:35;98318.13;;;19.97;69.72
21236;BME280;10775;42.678;26.324;2023-05-23T05:48:00;98325.78;;;20.02;69.51
21236;BME280;10775;42.678;26.324;2023-05-23T05:50:26;98322.13;;;19.90;69.84
21236;BME280;10775;42.678;26.324;2023-05-23T05:52:51;98322.31;;;19.44;71.74
21236;BME280;10775;42.678;26.324;2023-05-23T05:55:17;98318.44;;;19.64;72.39
21236;BME280;10775;42.678;26.324;2023-05-23T05:57:42;98319.06;;;18.96;75.21
21236;BME280;10775;42.678;26.324;2023-05-23T06:00:12;98323.00;;;18.88;76.17
21236;BME280;10775;42.678;26.324;2023-05-23T06:02:43;98300.72;;;19.21;73.34
21236;BME280;10775;42.678;26.324;2023-05-23T06:05:11;98309.41;;;18.18;75.96
21236;BME280;10775;42.678;26.324;2023-05-23T06:07:37;98323.13;;;18.71;75.79
21236;BME280;10775;42.678;26.324;2023-05-23T06:10:04;98313.91;;;18.32;77.37
21236;BME280;10775;42.678;26.324;2023-05-23T06:12:29;98322.94;;;18.90;75.22
21236;BME280;10775;42.678;26.324;2023-05-23T06:14:55;98312.91;;;19.09;74.43
21236;BME280;10775;42.678;26.324;2023-05-23T06:17:20;98304.72;;;19.57;71.64
21236;BME280;10775;42.678;26.324;2023-05-23T06:19:46;98301.00;;;19.60;71.93
21236;BME280;10775;42.678;26.324;2023-05-23T06:22:11;98310.47;;;19.06;72.72
21236;BME280;10775;42.678;26.324;2023-05-23T06:24:37;98309.44;;;19.23;73.27
21236;BME280;10775;42.678;26.324;2023-05-23T06:27:02;98314.94;;;19.34;73.29
21236;BME280;10775;42.678;26.324;2023-05-23T06:29:28;98315.31;;;19.43;72.10
21236;BME280;10775;42.678;26.324;2023-05-23T06:31:55;98317.59;;;18.76;72.78
21236;BME280;10775;42.678;26.324;2023-05-23T06:34:21;98323.97;;;18.87;77.11
21236;BME280;10775;42.678;26.324;2023-05-23T06:36:46;98328.06;;;19.07;75.15
21236;BME280;10775;42.678;26.324;2023-05-23T06:39:13;98327.59;;;19.01;76.84
21236;BME280;10775;42.678;26.324;2023-05-23T06:41:38;98326.34;;;19.06;73.04
21236;BME280;10775;42.678;26.324;2023-05-23T06:44:04;98319.09;;;19.53;73.26
21236;BME280;10775;42.678;26.324;2023-05-23T06:46:30;98328.59;;;18.68;76.40
21236;BME280;10775;42.678;26.324;2023-05-23T06:48:55;98322.34;;;18.85;76.23
21236;BME280;10775;42.678;26.324;2023-05-23T06:51:21;98319.88;;;19.41;75.73
21236;BME280;10775;42.678;26.324;2023-05-23T06:53:46;98310.75;;;18.41;74.51
21236;BME280;10775;42.678;26.324;2023-05-23T06:56:12;98315.72;;;18.78;76.45
21236;BME280;10775;42.678;26.324;2023-05-23T06:58:37;98318.13;;;18.51;74.33
21236;BME280;10775;42.678;26.324;2023-05-23T07:01:03;98304.94;;;18.81;73.77
21236;BME280;10775;42.678;26.324;2023-05-23T07:03:30;98308.72;;;18.91;76.64
21236;BME280;10775;42.678;26.324;2023-05-23T07:05:55;98302.72;;;19.03;76.15
21236;BME280;10775;42.678;26.324;2023-05-23T07:08:21;98305.63;;;18.99;77.42
21236;BME280;10775;42.678;26.324;2023-05-23T07:10:47;98302.38;;;18.79;72.63
21236;BME280;10775;42.678;26.324;2023-05-23T07:13:12;98305.34;;;19.03;75.18
21236;BME280;10775;42.678;26.324;2023-05-23T07:15:38;98294.66;;;19.48;76.20
21236;BME280;10775;42.678;26.324;2023-05-23T07:18:03;98299.13;;;19.19;70.99
21236;BME280;10775;42.678;26.324;2023-05-23T07:20:29;98304.41;;;19.47;76.55
21236;BME280;10775;42.678;26.324;2023-05-23T07:22:56;98311.50;;;20.31;69.93
21236;BME280;10775;42.678;26.324;2023-05-23T07:25:22;98313.63;;;19.56;73.53
21236;BME280;10775;42.678;26.324;2023-05-23T07:27:47;98321.84;;;19.51;71.08
21236;BME280;10775;42.678;26.324;2023-05-23T07:30:13;98322.88;;;19.20;71.66
21236;BME280;10775;42.678;26.324;2023-05-23T07:32:42;98315.13;;;19.60;76.17
21236;BME280;10775;42.678;26.324;2023-05-23T07:35:11;98314.50;;;20.12;73.65
21236;BME280;10775;42.678;26.324;2023-05-23T07:37:36;98310.56;;;20.72;71.94
21236;BME280;10775;42.678;26.324;2023-05-23T07:40:03;98302.94;;;20.80;71.35
21236;BME280;10775;42.678;26.324;2023-05-23T07:42:29;98308.72;;;21.00;70.35
21236;BME280;10775;42.678;26.324;2023-05-23T07:44:54;98304.75;;;20.53;71.05
21236;BME280;10775;42.678;26.324;2023-05-23T07:47:20;98296.78;;;20.80;70.96
21236;BME280;10775;42.678;26.324;2023-05-23T07:49:45;98309.06;;;19.87;73.19
21236;BME280;10775;42.678;26.324;2023-05-23T07:52:11;98307.59;;;20.64;72.33
21236;BME280;10775;42.678;26.324;2023-05-23T07:54:37;98301.88;;;20.96;70.04
21236;BME280;10775;42.678;26.324;2023-05-23T07:57:03;98318.97;;;20.25;71.16
21236;BME280;10775;42.678;26.324;2023-05-23T07:59:28;98326.94;;;20.66;71.14
21236;BME280;10775;42.678;26.324;2023-05-23T08:01:54;98315.91;;;20.85;72.34
21236;BME280;10775;42.678;26.324;2023-05-23T08:04:20;98319.94;;;20.78;68.84
21236;BME280;10775;42.678;26.324;2023-05-23T08:06:45;98317.13;;;20.39;69.33
21236;BME280;10775;42.678;26.324;2023-05-23T08:09:14;98316.53;;;20.49;68.47
21236;BME280;10775;42.678;26.324;2023-05-23T08:11:39;98314.25;;;21.22;72.84
21236;BME280;10775;42.678;26.324;2023-05-23T08:14:05;98307.66;;;21.66;71.83
21236;BME280;10775;42.678;26.324;2023-05-23T08:16:30;98307.66;;;21.66;71.72
21236;BME280;10775;42.678;26.324;2023-05-23T08:18:56;98312.75;;;21.69;71.65
21236;BME280;10775;42.678;26.324;2023-05-23T08:21:22;98323.19;;;21.47;65.71
21236;BME280;10775;42.678;26.324;2023-05-23T08:23:48;98324.28;;;19.97;75.11
21236;BME280;10775;42.678;26.324;2023-05-23T08:26:13;98322.53;;;20.25;76.08
21236;BME280;10775;42.678;26.324;2023-05-23T08:28:39;98323.00;;;20.72;72.74
21236;BME280;10775;42.678;26.324;2023-05-23T08:31:05;98313.78;;;20.23;68.62
21236;BME280;10775;42.678;26.324;2023-05-23T08:33:31;98320.75;;;20.38;67.68
21236;BME280;10775;42.678;26.324;2023-05-23T08:35:57;98323.53;;;20.64;74.26
21236;BME280;10775;42.678;26.324;2023-05-23T08:38:22;98323.63;;;20.62;71.55
21236;BME280;10775;42.678;26.324;2023-05-23T08:40:49;98313.78;;;20.90;72.30
21236;BME280;10775;42.678;26.324;2023-05-23T08:43:17;98309.56;;;20.06;66.60
21236;BME280;10775;42.678;26.324;2023-05-23T08:45:42;98315.50;;;20.24;67.52
21236;BME280;10775;42.678;26.324;2023-05-23T08:48:12;98315.00;;;20.59;69.97
21236;BME280;10775;42.678;26.324;2023-05-23T08:50:39;98309.97;;;20.81;66.18
21236;BME280;10775;42.678;26.324;2023-05-23T08:53:08;98318.22;;;20.64;66.65
21236;BME280;10775;42.678;26.324;2023-05-23T08:55:36;98311.94;;;20.65;65.62
21236;BME280;10775;42.678;26.324;2023-05-23T08:58:02;98310.41;;;21.14;70.17
21236;BME280;10775;42.678;26.324;2023-05-23T09:00:28;98315.38;;;20.53;67.25
21236;BME280;10775;42.678;26.324;2023-05-23T09:02:54;98308.47;;;20.77;65.62
21236;BME280;10775;42.678;26.324;2023-05-23T09:05:20;98312.16;;;20.62;65.60
21236;BME280;10775;42.678;26.324;2023-05-23T09:07:46;98306.19;;;20.58;66.81
21236;BME280;10775;42.678;26.324;2023-05-23T09:10:13;98309.63;;;20.86;64.31
21236;BME280;10775;42.678;26.324;2023-05-23T09:12:42;98315.19;;;20.96;63.56
21236;BME280;10775;42.678;26.324;2023-05-23T09:15:08;98320.88;;;20.64;64.51
21236;BME280;10775;42.678;26.324;2023-05-23T09:17:39;98326.72;;;20.69;63.23
21236;BME280;10775;42.678;26.324;2023-05-23T09:20:13;98328.09;;;20.62;69.51
21236;BME280;10775;42.678;26.324;2023-05-23T09:22:39;98327.31;;;20.60;64.45
21236;BME280;10775;42.678;26.324;2023-05-23T09:25:06;98320.31;;;20.59;62.99
21236;BME280;10775;42.678;26.324;2023-05-23T09:27:31;98320.13;;;20.62;63.01
21236;BME280;10775;42.678;26.324;2023-05-23T09:30:04;98319.69;;;20.68;63.94
21236;BME280;10775;42.678;26.324;2023-05-23T09:32:30;98322.31;;;21.08;62.85
21236;BME280;10775;42.678;26.324;2023-05-23T09:35:00;98312.75;;;20.93;67.75
21236;BME280;10775;42.678;26.324;2023-05-23T09:37:41;98323.59;;;21.15;66.60
21236;BME280;10775;42.678;26.324;2023-05-23T09:40:09;98320.41;;;20.97;61.32
21236;BME280;10775;42.678;26.324;2023-05-23T09:42:41;98325.47;;;20.88;64.65
21236;BME280;10775;42.678;26.324;2023-05-23T09:45:07;98322.84;;;21.13;65.22
21236;BME280;10775;42.678;26.324;2023-05-23T09:47:32;98317.97;;;20.94;60.13
21236;BME280;10775;42.678;26.324;2023-05-23T09:49:58;98318.59;;;21.23;64.97
21236;BME280;10775;42.678;26.324;2023-05-23T09:52:23;98315.09;;;21.36;62.96
21236;BME280;10775;42.678;26.324;2023-05-23T09:54:49;98317.84;;;21.21;64.85
21236;BME280;10775;42.678;26.324;2023-05-23T09:57:15;98317.22;;;21.05;60.63
21236;BME280;10775;42.678;26.324;2023-05-23T10:00:03;98310.97;;;21.44;65.60
21236;BME280;10775;42.678;26.324;2023-05-23T10:13:35;98311.81;;;21.19;65.07
21236;BME280;10775;42.678;26.324;2023-05-23T10:16:48;98317.31;;;21.16;60.72
21236;BME280;10775;42.678;26.324;2023-05-23T10:22:05;98313.59;;;21.70;66.20
21236;BME280;10775;42.678;26.324;2023-05-23T10:24:33;98303.31;;;21.65;65.38
21236;BME280;10775;42.678;26.324;2023-05-23T10:27:00;98306.31;;;21.85;59.98
21236;BME280;10775;42.678;26.324;2023-05-23T10:29:28;98302.97;;;21.32;60.23
21236;BME280;10775;42.678;26.324;2023-05-23T10:31:54;98302.56;;;20.99;59.86
21236;BME280;10775;42.678;26.324;2023-05-23T10:34:40;98299.59;;;21.30;59.56
21236;BME280;10775;42.678;26.324;2023-05-23T10:37:16;98297.66;;;21.32;60.77
21236;BME280;10775;42.678;26.324;2023-05-23T10:40:00;98296.66;;;21.84;64.50
21236;BME280;10775;42.678;26.324;2023-05-23T10:45:18;98301.19;;;21.06;63.79
21236;BME280;10775;42.678;26.324;2023-05-23T10:47:49;98308.94;;;21.22;59.42
21236;BME280;10775;42.678;26.324;2023-05-23T10:50:29;98289.13;;;20.88;59.96
21236;BME280;10775;42.678;26.324;2023-05-23T10:52:56;98292.69;;;21.14;60.54
21236;BME280;10775;42.678;26.324;2023-05-23T10:55:22;98288.59;;;21.34;60.08
21236;BME280;10775;42.678;26.324;2023-05-23T10:58:08;98287.00;;;21.32;59.30
21236;BME280;10775;42.678;26.324;2023-05-23T11:00:34;98282.56;;;21.58;59.69
21236;BME280;10775;42.678;26.324;2023-05-23T11:03:04;98288.63;;;21.21;60.04
21236;BME280;10775;42.678;26.324;2023-05-23T11:05:33;98287.69;;;21.10;61.54
21236;BME280;10775;42.678;26.324;2023-05-23T11:08:11;98287.47;;;21.13;62.78
21236;BME280;10775;42.678;26.324;2023-05-23T11:10:59;98280.31;;;21.00;61.30
21236;BME280;10775;42.678;26.324;2023-05-23T11:13:25;98278.72;;;21.62;66.35
21236;BME280;10775;42.678;26.324;2023-05-23T11:16:31;98280.00;;;21.56;61.06
21236;BME280;10775;42.678;26.324;2023-05-23T11:24:20;98286.97;;;21.83;60.70
21236;BME280;10775;42.678;26.324;2023-05-23T11:26:53;98281.78;;;22.05;61.24
21236;BME280;10775;42.678;26.324;2023-05-23T11:29:19;98291.44;;;22.43;62.27
21236;BME280;10775;42.678;26.324;2023-05-23T11:31:45;98281.97;;;22.15;64.34
21236;BME280;10775;42.678;26.324;2023-05-23T11:34:11;98285.84;;;21.98;63.35
21236;BME280;10775;42.678;26.324;2023-05-23T11:36:38;98280.53;;;21.61;62.71
21236;BME280;10775;42.678;26.324;2023-05-23T11:39:05;98277.66;;;21.13;63.92
21236;BME280;10775;42.678;26.324;2023-05-23T11:41:30;98298.00;;;21.27;67.76
21236;BME280;10775;42.678;26.324;2023-05-23T11:43:57;98288.41;;;20.99;64.64
21236;BME280;10775;42.678;26.324;2023-05-23T11:46:23;98284.22;;;20.69;65.78
21236;BME280;10775;42.678;26.324;2023-05-23T11:48:49;98288.03;;;20.65;65.49
21236;BME280;10775;42.678;26.324;2023-05-23T11:51:14;98281.38;;;21.23;64.66
21236;BME280;10775;42.678;26.324;2023-05-23T11:53:41;98274.47;;;21.34;63.91
21236;BME280;10775;42.678;26.324;2023-05-23T11:56:07;98266.41;;;21.48;62.72
21236;BME280;10775;42.678;26.324;2023-05-23T11:58:37;98267.56;;;21.31;61.53
21236;BME280;10775;42.678;26.324;2023-05-23T12:01:04;98255.63;;;21.99;64.84
21236;BME280;10775;42.678;26.324;2023-05-23T12:03:31;98254.97;;;23.14;62.32
21236;BME280;10775;42.678;26.324;2023-05-23T12:05:57;98257.88;;;23.68;61.27
21236;BME280;10775;42.678;26.324;2023-05-23T12:08:23;98257.88;;;23.79;61.13
21236;BME280;10775;42.678;26.324;2023-05-23T12:10:55;98256.00;;;24.02;60.46
21236;BME280;10775;42.678;26.324;2023-05-23T12:13:28;98250.09;;;23.87;60.45
21236;BME280;10775;42.678;26.324;2023-05-23T12:15:55;98259.56;;;23.69;56.08
21236;BME280;10775;42.678;26.324;2023-05-23T12:18:21;98246.31;;;23.67;55.72
21236;BME280;10775;42.678;26.324;2023-05-23T12:20:49;98248.94;;;24.12;58.64
21236;BME280;10775;42.678;26.324;2023-05-23T12:23:20;98249.63;;;23.14;54.70
21236;BME280;10775;42.678;26.324;2023-05-23T12:25:53;98248.19;;;22.64;54.29
21236;BME280;10775;42.678;26.324;2023-05-23T12:28:19;98244.56;;;23.11;54.14
21236;BME280;10775;42.678;26.324;2023-05-23T12:30:45;98238.84;;;23.72;57.74
21236;BME280;10775;42.678;26.324;2023-05-23T12:33:11;98233.72;;;23.69;52.82
21236;BME280;10775;42.678;26.324;2023-05-23T12:35:42;98244.16;;;23.72;52.46
21236;BME280;10775;42.678;26.324;2023-05-23T12:38:07;98235.59;;;23.35;53.92
21236;BME280;10775;42.678;26.324;2023-05-23T12:40:32;98227.91;;;22.96;55.26
21236;BME280;10775;42.678;26.324;2023-05-23T12:42:58;98234.25;;;23.40;56.86
21236;BME280;10775;42.678;26.324;2023-05-23T12:45:34;98218.78;;;22.88;53.46
21236;BME280;10775;42.678;26.324;2023-05-23T12:48:06;98223.28;;;22.76;52.68
21236;BME280;10775;42.678;26.324;2023-05-23T12:50:32;98219.75;;;22.87;56.05
21236;BME280;10775;42.678;26.324;2023-05-23T12:52:58;98231.44;;;22.50;52.94
21236;BME280;10775;42.678;26.324;2023-05-23T12:55:23;98230.59;;;22.50;56.38
21236;BME280;10775;42.678;26.324;2023-05-23T12:57:49;98236.91;;;22.60;55.91
21236;BME280;10775;42.678;26.324;2023-05-23T13:00:15;98237.28;;;22.67;57.23
21236;BME280;10775;42.678;26.324;2023-05-23T13:02:42;98243.94;;;22.72;56.63
21236;BME280;10775;42.678;26.324;2023-05-23T13:05:07;98239.94;;;22.55;59.76
21236;BME280;10775;42.678;26.324;2023-05-23T13:07:33;98232.19;;;23.33;57.57
21236;BME280;10775;42.678;26.324;2023-05-23T13:10:00;98237.25;;;23.81;56.25
21236;BME280;10775;42.678;26.324;2023-05-23T13:12:25;98230.09;;;23.70;53.65
21236;BME280;10775;42.678;26.324;2023-05-23T13:14:51;98228.16;;;24.16;55.09
21236;BME280;10775;42.678;26.324;2023-05-23T13:17:17;98222.50;;;23.98;53.41
21236;BME280;10775;42.678;26.324;2023-05-23T13:19:42;98223.44;;;23.76;54.29